sensor_id;sensor_type;location;lat;lon;timestamp;temperature;humidity
44579;DHT22;37422;51.402;0.016;2022-11-20T00:01:31;5.80;99.90
44579;DHT22;37422;51.402;0.016;2022-11-20T00:04:00;5.80;99.90
44579;DHT22;37422;51.402;0.016;2022-11-20T00:06:28;5.80;99.90
44579;DHT22;37422;51.402;0.016;2022-11-20T00:08:58;5.80;99.90
44579;DHT22;37422;51.402;0.016;2022-11-20T00:11:29;5.80;99.90
44579;DHT22;37422;51.402;0.016;2022-11-20T00:13:58;5.80;99.90
44579;DHT22;37422;51.402;0.016;2022-11-20T00:16:31;5.80;99.90
44579;DHT22;37422;51.402;0.016;2022-11-20T00:18:59;5.80;99.90
44579;DHT22;37422;51.402;0.016;2022-11-20T00:21:28;5.80;99.90
44579;DHT22;37422;51.402;0.016;2022-11-20T00:23:57;5.80;99.90
44579;DHT22;37422;51.402;0.016;2022-11-20T00:26:25;5.80;99.90
44579;DHT22;37422;51.402;0.016;2022-11-20T00:29:00;5.80;99.90
44579;DHT22;37422;51.402;0.016;2022-11-20T00:31:29;5.80;99.90
44579;DHT22;37422;51.402;0.016;2022-11-20T00:33:57;5.80;99.90
44579;DHT22;37422;51.402;0.016;2022-11-20T00:36:27;5.80;99.90
44579;DHT22;37422;51.402;0.016;2022-11-20T00:38:57;5.80;99.90
44579;DHT22;37422;51.402;0.016;2022-11-20T00:41:26;5.90;99.90
44579;DHT22;37422;51.402;0.016;2022-11-20T00:43:55;5.90;99.90
44579;DHT22;37422;51.402;0.016;2022-11-20T00:46:25;5.90;99.90
44579;DHT22;37422;51.402;0.016;2022-11-20T00:48:54;6.00;99.90
44579;DHT22;37422;51.402;0.016;2022-11-20T00:51:23;6.00;99.90
44579;DHT22;37422;51.402;0.016;2022-11-20T00:53:51;6.00;99.90
44579;DHT22;37422;51.402;0.016;2022-11-20T00:56:19;6.00;99.90
44579;DHT22;37422;51.402;0.016;2022-11-20T00:58:48;6.00;99.90
44579;DHT22;37422;51.402;0.016;2022-11-20T01:01:19;6.10;99.90
44579;DHT22;37422;51.402;0.016;2022-11-20T01:03:49;6.10;99.90
44579;DHT22;37422;51.402;0.016;2022-11-20T01:06:20;6.10;99.90
44579;DHT22;37422;51.402;0.016;2022-11-20T01:08:50;6.10;99.90
44579;DHT22;37422;51.402;0.016;2022-11-20T01:11:25;6.20;99.90
44579;DHT22;37422;51.402;0.016;2022-11-20T01:13:54;6.70;99.90
44579;DHT22;37422;51.402;0.016;2022-11-20T01:18:52;6.20;99.90
44579;DHT22;37422;51.402;0.016;2022-11-20T01:21:29;6.10;99.90
44579;DHT22;37422;51.402;0.016;2022-11-20T01:23:57;6.20;99.90
44579;DHT22;37422;51.402;0.016;2022-11-20T01:26:30;6.20;99.90
44579;DHT22;37422;51.402;0.016;2022-11-20T01:29:00;6.30;99.90
44579;DHT22;37422;51.402;0.016;2022-11-20T01:31:30;6.30;99.90
44579;DHT22;37422;51.402;0.016;2022-11-20T01:34:01;6.40;99.90
44579;DHT22;37422;51.402;0.016;2022-11-20T01:36:31;6.50;99.90
44579;DHT22;37422;51.402;0.016;2022-11-20T01:39:01;6.40;99.90
44579;DHT22;37422;51.402;0.016;2022-11-20T01:41:31;6.40;99.90
44579;DHT22;37422;51.402;0.016;2022-11-20T01:44:21;6.40;99.90
44579;DHT22;37422;51.402;0.016;2022-11-20T01:46:59;6.60;99.90
44579;DHT22;37422;51.402;0.016;2022-11-20T01:49:54;6.40;99.90
44579;DHT22;37422;51.402;0.016;2022-11-20T01:55:43;6.40;99.90
44579;DHT22;37422;51.402;0.016;2022-11-20T01:58:13;6.40;99.90
44579;DHT22;37422;51.402;0.016;2022-11-20T02:00:41;6.40;99.90
44579;DHT22;37422;51.402;0.016;2022-11-20T02:03:13;6.50;99.90
44579;DHT22;37422;51.402;0.016;2022-11-20T02:06:05;6.50;99.90
44579;DHT22;37422;51.402;0.016;2022-11-20T02:08:36;6.50;99.90
44579;DHT22;37422;51.402;0.016;2022-11-20T02:11:05;6.50;99.90
44579;DHT22;37422;51.402;0.016;2022-11-20T02:13:33;6.50;99.90
44579;DHT22;37422;51.402;0.016;2022-11-20T02:16:28;6.60;99.90
44579;DHT22;37422;51.402;0.016;2022-11-20T02:19:00;6.60;99.90
44579;DHT22;37422;51.402;0.016;2022-11-20T02:24:17;6.60;99.90
44579;DHT22;37422;51.402;0.016;2022-11-20T02:26:47;6.60;99.90
44579;DHT22;37422;51.402;0.016;2022-11-20T02:29:23;6.60;99.90
44579;DHT22;37422;51.402;0.016;2022-11-20T02:31:53;6.60;99.90
44579;DHT22;37422;51.402;0.016;2022-11-20T02:34:21;6.60;99.90
44579;DHT22;37422;51.402;0.016;2022-11-20T02:36:50;6.60;99.90
44579;DHT22;37422;51.402;0.016;2022-11-20T02:39:20;6.60;99.90
44579;DHT22;37422;51.402;0.016;2022-11-20T02:41:55;6.70;99.90
44579;DHT22;37422;51.402;0.016;2022-11-20T02:44:23;6.70;99.90
44579;DHT22;37422;51.402;0.016;2022-11-20T02:46:51;6.70;99.90
44579;DHT22;37422;51.402;0.016;2022-11-20T02:49:18;6.70;99.90
44579;DHT22;37422;51.402;0.016;2022-11-20T02:51:46;6.80;99.90
44579;DHT22;37422;51.402;0.016;2022-11-20T02:54:14;6.90;99.90
44579;DHT22;37422;51.402;0.016;2022-11-20T02:56:42;7.00;99.90
44579;DHT22;37422;51.402;0.016;2022-11-20T02:59:10;7.10;99.90
44579;DHT22;37422;51.402;0.016;2022-11-20T03:01:38;6.80;99.90
44579;DHT22;37422;51.402;0.016;2022-11-20T03:04:06;7.10;99.90
44579;DHT22;37422;51.402;0.016;2022-11-20T03:06:34;7.10;99.90
44579;DHT22;37422;51.402;0.016;2022-11-20T03:09:01;7.20;99.90
44579;DHT22;37422;51.402;0.016;2022-11-20T03:11:29;7.20;99.90
44579;DHT22;37422;51.402;0.016;2022-11-20T03:13:57;7.20;99.90
44579;DHT22;37422;51.402;0.016;2022-11-20T03:16:24;7.10;99.90
44579;DHT22;37422;51.402;0.016;2022-11-20T03:18:52;7.10;99.90
44579;DHT22;37422;51.402;0.016;2022-11-20T03:21:20;7.10;99.90
44579;DHT22;37422;51.402;0.016;2022-11-20T03:23:48;7.20;99.90
44579;DHT22;37422;51.402;0.016;2022-11-20T03:26:22;7.00;99.90
44579;DHT22;37422;51.402;0.016;2022-11-20T03:28:59;7.00;99.90
44579;DHT22;37422;51.402;0.016;2022-11-20T03:31:29;7.00;99.90
44579;DHT22;37422;51.402;0.016;2022-11-20T03:33:58;7.00;99.90
44579;DHT22;37422;51.402;0.016;2022-11-20T03:36:26;7.00;99.90
44579;DHT22;37422;51.402;0.016;2022-11-20T03:38:55;6.90;99.90
44579;DHT22;37422;51.402;0.016;2022-11-20T03:41:25;6.90;99.90
44579;DHT22;37422;51.402;0.016;2022-11-20T03:43:59;6.90;99.90
44579;DHT22;37422;51.402;0.016;2022-11-20T03:46:28;7.00;99.90
44579;DHT22;37422;51.402;0.016;2022-11-20T03:48:56;7.00;99.90
44579;DHT22;37422;51.402;0.016;2022-11-20T03:51:29;7.00;99.90
44579;DHT22;37422;51.402;0.016;2022-11-20T03:53:59;7.00;99.90
44579;DHT22;37422;51.402;0.016;2022-11-20T03:56:32;7.00;99.90
44579;DHT22;37422;51.402;0.016;2022-11-20T03:59:01;7.00;99.90
44579;DHT22;37422;51.402;0.016;2022-11-20T04:01:34;7.10;99.90
44579;DHT22;37422;51.402;0.016;2022-11-20T04:04:02;7.10;99.90
44579;DHT22;37422;51.402;0.016;2022-11-20T04:06:34;7.10;99.90
44579;DHT22;37422;51.402;0.016;2022-11-20T04:09:03;7.10;99.90
44579;DHT22;37422;51.402;0.016;2022-11-20T04:11:32;7.20;99.90
44579;DHT22;37422;51.402;0.016;2022-11-20T04:14:03;7.10;99.90
44579;DHT22;37422;51.402;0.016;2022-11-20T04:16:33;7.20;99.90
44579;DHT22;37422;51.402;0.016;2022-11-20T04:19:03;7.20;99.90
44579;DHT22;37422;51.402;0.016;2022-11-20T04:21:32;7.20;99.90
44579;DHT22;37422;51.402;0.016;2022-11-20T04:24:00;7.20;99.90
44579;DHT22;37422;51.402;0.016;2022-11-20T04:26:29;7.30;99.90
44579;DHT22;37422;51.402;0.016;2022-11-20T04:28:57;7.30;99.90
44579;DHT22;37422;51.402;0.016;2022-11-20T04:31:28;7.20;99.90
44579;DHT22;37422;51.402;0.016;2022-11-20T04:34:00;7.20;99.90
44579;DHT22;37422;51.402;0.016;2022-11-20T04:36:28;7.30;99.90
44579;DHT22;37422;51.402;0.016;2022-11-20T04:38:59;7.30;99.90
44579;DHT22;37422;51.402;0.016;2022-11-20T04:41:29;7.30;99.90
44579;DHT22;37422;51.402;0.016;2022-11-20T04:43:59;7.30;99.90
44579;DHT22;37422;51.402;0.016;2022-11-20T04:46:35;7.30;99.90
44579;DHT22;37422;51.402;0.016;2022-11-20T04:49:04;7.30;99.90
44579;DHT22;37422;51.402;0.016;2022-11-20T04:51:32;7.30;99.90
44579;DHT22;37422;51.402;0.016;2022-11-20T04:54:00;7.30;99.90
44579;DHT22;37422;51.402;0.016;2022-11-20T04:56:28;7.30;99.90
44579;DHT22;37422;51.402;0.016;2022-11-20T04:58:55;7.30;99.90
44579;DHT22;37422;51.402;0.016;2022-11-20T05:01:26;8.20;99.90
44579;DHT22;37422;51.402;0.016;2022-11-20T05:03:54;7.30;99.90
44579;DHT22;37422;51.402;0.016;2022-11-20T05:06:22;7.30;99.90
44579;DHT22;37422;51.402;0.016;2022-11-20T05:08:50;7.30;99.90
44579;DHT22;37422;51.402;0.016;2022-11-20T05:11:19;7.40;99.90
44579;DHT22;37422;51.402;0.016;2022-11-20T05:13:48;7.40;99.90
44579;DHT22;37422;51.402;0.016;2022-11-20T05:16:18;7.40;99.90
44579;DHT22;37422;51.402;0.016;2022-11-20T05:18:47;7.40;99.90
44579;DHT22;37422;51.402;0.016;2022-11-20T05:21:15;7.40;99.90
44579;DHT22;37422;51.402;0.016;2022-11-20T05:23:44;7.50;99.90
44579;DHT22;37422;51.402;0.016;2022-11-20T05:26:17;7.50;99.90
44579;DHT22;37422;51.402;0.016;2022-11-20T05:28:45;7.50;99.90
44579;DHT22;37422;51.402;0.016;2022-11-20T05:31:17;7.50;99.90
44579;DHT22;37422;51.402;0.016;2022-11-20T05:33:54;7.60;99.90
44579;DHT22;37422;51.402;0.016;2022-11-20T05:36:22;7.50;99.90
44579;DHT22;37422;51.402;0.016;2022-11-20T05:38:50;7.50;99.90
44579;DHT22;37422;51.402;0.016;2022-11-20T05:41:20;7.50;99.90
44579;DHT22;37422;51.402;0.016;2022-11-20T05:43:49;7.50;99.90
44579;DHT22;37422;51.402;0.016;2022-11-20T05:46:20;7.50;99.90
44579;DHT22;37422;51.402;0.016;2022-11-20T05:48:56;7.50;99.90
44579;DHT22;37422;51.402;0.016;2022-11-20T05:51:24;7.50;99.90
44579;DHT22;37422;51.402;0.016;2022-11-20T05:53:52;7.60;99.90
44579;DHT22;37422;51.402;0.016;2022-11-20T05:56:21;7.50;99.90
44579;DHT22;37422;51.402;0.016;2022-11-20T05:58:49;7.50;99.90
44579;DHT22;37422;51.402;0.016;2022-11-20T06:01:22;7.60;99.90
44579;DHT22;37422;51.402;0.016;2022-11-20T06:03:50;7.60;99.90
44579;DHT22;37422;51.402;0.016;2022-11-20T06:06:19;7.60;99.90
44579;DHT22;37422;51.402;0.016;2022-11-20T06:08:47;7.60;99.90
44579;DHT22;37422;51.402;0.016;2022-11-20T06:11:16;7.70;99.90
44579;DHT22;37422;51.402;0.016;2022-11-20T06:13:44;7.70;99.90
44579;DHT22;37422;51.402;0.016;2022-11-20T06:16:15;7.70;99.90
44579;DHT22;37422;51.402;0.016;2022-11-20T06:18:43;7.70;99.90
44579;DHT22;37422;51.402;0.016;2022-11-20T06:21:16;6.70;99.90
44579;DHT22;37422;51.402;0.016;2022-11-20T06:23:44;7.70;99.90
44579;DHT22;37422;51.402;0.016;2022-11-20T06:26:18;7.70;99.90
44579;DHT22;37422;51.402;0.016;2022-11-20T06:28:46;7.80;99.90
44579;DHT22;37422;51.402;0.016;2022-11-20T06:31:15;7.80;99.90
44579;DHT22;37422;51.402;0.016;2022-11-20T06:33:44;7.80;99.90
44579;DHT22;37422;51.402;0.016;2022-11-20T06:36:14;7.80;99.90
44579;DHT22;37422;51.402;0.016;2022-11-20T06:38:42;7.80;99.90
44579;DHT22;37422;51.402;0.016;2022-11-20T06:41:12;7.80;99.90
44579;DHT22;37422;51.402;0.016;2022-11-20T06:43:40;7.80;99.90
44579;DHT22;37422;51.402;0.016;2022-11-20T06:46:12;7.90;99.90
44579;DHT22;37422;51.402;0.016;2022-11-20T06:48:42;7.90;99.90
44579;DHT22;37422;51.402;0.016;2022-11-20T06:51:10;7.90;99.90
44579;DHT22;37422;51.402;0.016;2022-11-20T06:53:38;7.90;99.90
44579;DHT22;37422;51.402;0.016;2022-11-20T06:56:07;8.00;99.90
44579;DHT22;37422;51.402;0.016;2022-11-20T06:58:38;8.00;99.90
44579;DHT22;37422;51.402;0.016;2022-11-20T07:01:10;8.00;99.90
44579;DHT22;37422;51.402;0.016;2022-11-20T07:03:39;8.00;99.90
44579;DHT22;37422;51.402;0.016;2022-11-20T07:06:07;8.10;99.90
44579;DHT22;37422;51.402;0.016;2022-11-20T07:08:36;8.10;99.90
44579;DHT22;37422;51.402;0.016;2022-11-20T07:11:06;8.10;99.90
44579;DHT22;37422;51.402;0.016;2022-11-20T07:13:34;8.10;99.90
44579;DHT22;37422;51.402;0.016;2022-11-20T07:16:04;8.20;99.90
44579;DHT22;37422;51.402;0.016;2022-11-20T07:18:32;8.30;99.90
44579;DHT22;37422;51.402;0.016;2022-11-20T07:21:08;8.30;99.90
44579;DHT22;37422;51.402;0.016;2022-11-20T07:23:37;8.30;99.90
44579;DHT22;37422;51.402;0.016;2022-11-20T07:26:10;8.40;99.90
44579;DHT22;37422;51.402;0.016;2022-11-20T07:28:38;8.40;99.90
44579;DHT22;37422;51.402;0.016;2022-11-20T07:31:06;8.40;99.90
44579;DHT22;37422;51.402;0.016;2022-11-20T07:33:34;8.50;99.90
44579;DHT22;37422;51.402;0.016;2022-11-20T07:36:03;8.50;99.90
44579;DHT22;37422;51.402;0.016;2022-11-20T07:38:31;8.50;99.90
44579;DHT22;37422;51.402;0.016;2022-11-20T07:40:58;8.50;99.90
44579;DHT22;37422;51.402;0.016;2022-11-20T07:43:29;8.60;99.90
44579;DHT22;37422;51.402;0.016;2022-11-20T07:45:58;8.60;99.90
44579;DHT22;37422;51.402;0.016;2022-11-20T07:48:26;8.60;99.90
44579;DHT22;37422;51.402;0.016;2022-11-20T07:50:57;8.60;99.90
44579;DHT22;37422;51.402;0.016;2022-11-20T07:53:25;8.60;99.90
44579;DHT22;37422;51.402;0.016;2022-11-20T07:55:52;8.60;99.90
44579;DHT22;37422;51.402;0.016;2022-11-20T07:58:21;8.50;99.90
44579;DHT22;37422;51.402;0.016;2022-11-20T08:00:49;8.50;99.90
44579;DHT22;37422;51.402;0.016;2022-11-20T08:03:17;8.50;99.90
44579;DHT22;37422;51.402;0.016;2022-11-20T08:05:51;8.50;99.90
44579;DHT22;37422;51.402;0.016;2022-11-20T08:08:19;8.50;99.90
44579;DHT22;37422;51.402;0.016;2022-11-20T08:10:47;8.50;99.90
44579;DHT22;37422;51.402;0.016;2022-11-20T08:13:15;8.60;99.90
44579;DHT22;37422;51.402;0.016;2022-11-20T08:16:01;8.60;99.90
44579;DHT22;37422;51.402;0.016;2022-11-20T08:18:29;8.50;99.90
44579;DHT22;37422;51.402;0.016;2022-11-20T08:21:03;8.60;99.90
44579;DHT22;37422;51.402;0.016;2022-11-20T08:23:31;8.70;99.90
44579;DHT22;37422;51.402;0.016;2022-11-20T08:25:59;8.70;99.90
44579;DHT22;37422;51.402;0.016;2022-11-20T08:28:27;8.70;99.90
44579;DHT22;37422;51.402;0.016;2022-11-20T08:31:02;8.80;99.90
44579;DHT22;37422;51.402;0.016;2022-11-20T08:33:30;8.80;99.90
44579;DHT22;37422;51.402;0.016;2022-11-20T08:36:01;8.80;99.90
44579;DHT22;37422;51.402;0.016;2022-11-20T08:38:30;8.80;99.90
44579;DHT22;37422;51.402;0.016;2022-11-20T08:40:59;8.80;99.90
44579;DHT22;37422;51.402;0.016;2022-11-20T08:43:46;8.80;99.90
44579;DHT22;37422;51.402;0.016;2022-11-20T08:46:14;8.90;99.90
44579;DHT22;37422;51.402;0.016;2022-11-20T08:48:42;8.90;99.90
44579;DHT22;37422;51.402;0.016;2022-11-20T08:51:10;8.90;99.90
44579;DHT22;37422;51.402;0.016;2022-11-20T08:53:39;8.90;99.90
44579;DHT22;37422;51.402;0.016;2022-11-20T08:56:07;8.90;99.90
44579;DHT22;37422;51.402;0.016;2022-11-20T08:58:38;8.90;99.90
44579;DHT22;37422;51.402;0.016;2022-11-20T09:06:39;8.90;99.90
44579;DHT22;37422;51.402;0.016;2022-11-20T09:09:07;8.90;99.90
44579;DHT22;37422;51.402;0.016;2022-11-20T09:11:35;8.90;99.90
44579;DHT22;37422;51.402;0.016;2022-11-20T09:14:03;9.00;99.90
44579;DHT22;37422;51.402;0.016;2022-11-20T09:16:31;9.00;99.90
44579;DHT22;37422;51.402;0.016;2022-11-20T09:18:59;9.00;99.90
44579;DHT22;37422;51.402;0.016;2022-11-20T09:21:47;9.20;99.90
44579;DHT22;37422;51.402;0.016;2022-11-20T09:24:14;9.40;99.90
44579;DHT22;37422;51.402;0.016;2022-11-20T09:26:42;9.50;99.90
44579;DHT22;37422;51.402;0.016;2022-11-20T09:29:10;9.70;99.90
44579;DHT22;37422;51.402;0.016;2022-11-20T09:31:38;9.80;99.90
44579;DHT22;37422;51.402;0.016;2022-11-20T09:34:06;9.90;99.90
44579;DHT22;37422;51.402;0.016;2022-11-20T09:36:33;10.00;99.90
44579;DHT22;37422;51.402;0.016;2022-11-20T09:39:01;10.00;99.90
44579;DHT22;37422;51.402;0.016;2022-11-20T09:50:19;9.80;99.90
44579;DHT22;37422;51.402;0.016;2022-11-20T09:53:12;10.00;99.90
44579;DHT22;37422;51.402;0.016;2022-11-20T09:55:40;10.20;99.90
44579;DHT22;37422;51.402;0.016;2022-11-20T09:58:26;10.50;99.90
44579;DHT22;37422;51.402;0.016;2022-11-20T10:01:03;10.80;99.90
44579;DHT22;37422;51.402;0.016;2022-11-20T10:03:43;11.00;99.90
44579;DHT22;37422;51.402;0.016;2022-11-20T10:06:17;11.00;99.90
44579;DHT22;37422;51.402;0.016;2022-11-20T10:09:38;11.00;99.90
44579;DHT22;37422;51.402;0.016;2022-11-20T10:12:05;10.90;99.90
44579;DHT22;37422;51.402;0.016;2022-11-20T10:14:56;10.80;99.90
44579;DHT22;37422;51.402;0.016;2022-11-20T10:28:56;11.40;99.90
44579;DHT22;37422;51.402;0.016;2022-11-20T10:31:44;11.60;99.90
44579;DHT22;37422;51.402;0.016;2022-11-20T10:37:12;11.80;99.90
44579;DHT22;37422;51.402;0.016;2022-11-20T10:42:30;12.20;99.90
44579;DHT22;37422;51.402;0.016;2022-11-20T10:50:35;13.00;99.90
44579;DHT22;37422;51.402;0.016;2022-11-20T10:56:13;14.20;99.90
44579;DHT22;37422;51.402;0.016;2022-11-20T11:01:54;15.60;99.90
44579;DHT22;37422;51.402;0.016;2022-11-20T11:04:49;16.10;99.90
44579;DHT22;37422;51.402;0.016;2022-11-20T11:07:36;16.70;99.90
44579;DHT22;37422;51.402;0.016;2022-11-20T11:13:02;17.60;99.90
44579;DHT22;37422;51.402;0.016;2022-11-20T11:15:40;17.90;99.90
44579;DHT22;37422;51.402;0.016;2022-11-20T11:18:10;18.00;99.90
44579;DHT22;37422;51.402;0.016;2022-11-20T11:20:38;18.30;99.90
44579;DHT22;37422;51.402;0.016;2022-11-20T11:23:43;18.50;99.90
44579;DHT22;37422;51.402;0.016;2022-11-20T11:26:22;18.90;99.90
44579;DHT22;37422;51.402;0.016;2022-11-20T11:28:58;19.20;99.90
44579;DHT22;37422;51.402;0.016;2022-11-20T11:34:12;19.60;99.90
44579;DHT22;37422;51.402;0.016;2022-11-20T11:36:40;19.80;99.90
44579;DHT22;37422;51.402;0.016;2022-11-20T11:39:14;19.80;99.90
44579;DHT22;37422;51.402;0.016;2022-11-20T11:41:44;19.90;99.90
44579;DHT22;37422;51.402;0.016;2022-11-20T11:44:30;19.90;99.90
44579;DHT22;37422;51.402;0.016;2022-11-20T11:47:36;20.00;99.90
44579;DHT22;37422;51.402;0.016;2022-11-20T11:52:51;20.30;99.80
44579;DHT22;37422;51.402;0.016;2022-11-20T11:55:35;20.40;99.90
44579;DHT22;37422;51.402;0.016;2022-11-20T11:58:16;20.50;99.50
44579;DHT22;37422;51.402;0.016;2022-11-20T12:00:57;20.60;99.90
44579;DHT22;37422;51.402;0.016;2022-11-20T12:03:37;20.90;99.90
44579;DHT22;37422;51.402;0.016;2022-11-20T12:06:11;21.00;99.60
44579;DHT22;37422;51.402;0.016;2022-11-20T12:09:11;21.20;99.00
44579;DHT22;37422;51.402;0.016;2022-11-20T12:14:36;21.00;99.20
44579;DHT22;37422;51.402;0.016;2022-11-20T12:17:07;20.90;95.90
44579;DHT22;37422;51.402;0.016;2022-11-20T12:19:35;20.70;98.30
44579;DHT22;37422;51.402;0.016;2022-11-20T12:22:31;20.60;97.30
44579;DHT22;37422;51.402;0.016;2022-11-20T12:30:48;20.50;95.20
44579;DHT22;37422;51.402;0.016;2022-11-20T12:39:22;19.00;96.30
44579;DHT22;37422;51.402;0.016;2022-11-20T12:48:06;18.60;97.20
44579;DHT22;37422;51.402;0.016;2022-11-20T13:02:23;15.80;98.50
44579;DHT22;37422;51.402;0.016;2022-11-20T13:07:43;14.50;99.60
44579;DHT22;37422;51.402;0.016;2022-11-20T13:10:39;14.00;99.90
44579;DHT22;37422;51.402;0.016;2022-11-20T13:13:14;13.60;99.90
44579;DHT22;37422;51.402;0.016;2022-11-20T13:15:59;13.30;99.90
44579;DHT22;37422;51.402;0.016;2022-11-20T13:18:40;13.00;99.90
44579;DHT22;37422;51.402;0.016;2022-11-20T13:21:14;12.80;99.90
44579;DHT22;37422;51.402;0.016;2022-11-20T13:23:42;12.60;99.90
44579;DHT22;37422;51.402;0.016;2022-11-20T13:26:17;12.50;99.90
44579;DHT22;37422;51.402;0.016;2022-11-20T13:28:46;12.30;99.90
44579;DHT22;37422;51.402;0.016;2022-11-20T13:31:33;12.20;99.90
44579;DHT22;37422;51.402;0.016;2022-11-20T13:34:04;12.10;99.90
44579;DHT22;37422;51.402;0.016;2022-11-20T13:36:33;12.00;99.90
44579;DHT22;37422;51.402;0.016;2022-11-20T13:39:02;11.90;99.90
44579;DHT22;37422;51.402;0.016;2022-11-20T13:41:35;11.80;99.90
44579;DHT22;37422;51.402;0.016;2022-11-20T13:44:33;11.70;99.90
44579;DHT22;37422;51.402;0.016;2022-11-20T13:47:02;11.60;99.90
44579;DHT22;37422;51.402;0.016;2022-11-20T13:49:31;11.60;99.90
44579;DHT22;37422;51.402;0.016;2022-11-20T13:52:22;11.50;99.90
44579;DHT22;37422;51.402;0.016;2022-11-20T14:00:17;11.50;99.90
44579;DHT22;37422;51.402;0.016;2022-11-20T14:03:17;11.50;99.90
44579;DHT22;37422;51.402;0.016;2022-11-20T14:06:10;11.50;99.90
44579;DHT22;37422;51.402;0.016;2022-11-20T14:08:47;11.40;99.90
44579;DHT22;37422;51.402;0.016;2022-11-20T14:11:19;11.20;99.90
44579;DHT22;37422;51.402;0.016;2022-11-20T14:13:57;11.20;99.90
44579;DHT22;37422;51.402;0.016;2022-11-20T14:16:28;11.10;99.90
44579;DHT22;37422;51.402;0.016;2022-11-20T14:18:57;11.00;99.90
44579;DHT22;37422;51.402;0.016;2022-11-20T14:21:27;10.90;99.90
44579;DHT22;37422;51.402;0.016;2022-11-20T14:24:06;10.90;99.90
44579;DHT22;37422;51.402;0.016;2022-11-20T14:26:33;11.00;99.90
44579;DHT22;37422;51.402;0.016;2022-11-20T14:29:02;11.00;99.90
44579;DHT22;37422;51.402;0.016;2022-11-20T14:31:30;11.00;99.90
44579;DHT22;37422;51.402;0.016;2022-11-20T14:33:57;11.00;99.90
44579;DHT22;37422;51.402;0.016;2022-11-20T14:36:25;11.00;99.90
44579;DHT22;37422;51.402;0.016;2022-11-20T14:38:56;11.10;99.90
44579;DHT22;37422;51.402;0.016;2022-11-20T14:41:24;11.10;99.90
44579;DHT22;37422;51.402;0.016;2022-11-20T14:43:59;11.10;99.90
44579;DHT22;37422;51.402;0.016;2022-11-20T14:46:27;11.20;99.90
44579;DHT22;37422;51.402;0.016;2022-11-20T14:48:57;11.10;99.90
44579;DHT22;37422;51.402;0.016;2022-11-20T14:51:35;11.20;99.90
44579;DHT22;37422;51.402;0.016;2022-11-20T14:54:12;11.20;99.90
44579;DHT22;37422;51.402;0.016;2022-11-20T14:56:42;11.20;99.90
44579;DHT22;37422;51.402;0.016;2022-11-20T14:59:10;11.20;99.90
44579;DHT22;37422;51.402;0.016;2022-11-20T15:01:37;11.20;99.90
44579;DHT22;37422;51.402;0.016;2022-11-20T15:04:09;11.20;99.90
44579;DHT22;37422;51.402;0.016;2022-11-20T15:06:52;11.10;99.90
44579;DHT22;37422;51.402;0.016;2022-11-20T15:09:20;11.10;99.90
44579;DHT22;37422;51.402;0.016;2022-11-20T15:11:58;11.10;99.90
44579;DHT22;37422;51.402;0.016;2022-11-20T15:14:28;11.00;99.90
44579;DHT22;37422;51.402;0.016;2022-11-20T15:17:00;11.00;99.90
44579;DHT22;37422;51.402;0.016;2022-11-20T15:19:28;10.90;99.90
44579;DHT22;37422;51.402;0.016;2022-11-20T15:21:56;10.80;99.90
44579;DHT22;37422;51.402;0.016;2022-11-20T15:24:24;10.80;99.90
44579;DHT22;37422;51.402;0.016;2022-11-20T15:26:53;10.80;99.90
44579;DHT22;37422;51.402;0.016;2022-11-20T15:29:23;10.70;99.90
44579;DHT22;37422;51.402;0.016;2022-11-20T15:31:51;10.70;99.90
44579;DHT22;37422;51.402;0.016;2022-11-20T15:34:21;10.60;99.90
44579;DHT22;37422;51.402;0.016;2022-11-20T15:36:49;10.60;99.90
44579;DHT22;37422;51.402;0.016;2022-11-20T15:39:17;10.50;99.90
44579;DHT22;37422;51.402;0.016;2022-11-20T15:41:45;10.50;99.90
44579;DHT22;37422;51.402;0.016;2022-11-20T15:44:13;10.50;99.90
44579;DHT22;37422;51.402;0.016;2022-11-20T15:46:42;10.40;99.90
44579;DHT22;37422;51.402;0.016;2022-11-20T15:49:14;10.40;99.90
44579;DHT22;37422;51.402;0.016;2022-11-20T15:51:48;10.40;99.90
44579;DHT22;37422;51.402;0.016;2022-11-20T15:54:20;10.30;99.90
44579;DHT22;37422;51.402;0.016;2022-11-20T15:56:50;10.30;99.90
44579;DHT22;37422;51.402;0.016;2022-11-20T15:59:21;10.30;99.90
44579;DHT22;37422;51.402;0.016;2022-11-20T16:01:50;10.30;99.90
44579;DHT22;37422;51.402;0.016;2022-11-20T16:04:21;10.30;99.90
44579;DHT22;37422;51.402;0.016;2022-11-20T16:06:49;10.30;99.90
44579;DHT22;37422;51.402;0.016;2022-11-20T16:09:19;10.20;99.90
44579;DHT22;37422;51.402;0.016;2022-11-20T16:11:47;10.20;99.90
44579;DHT22;37422;51.402;0.016;2022-11-20T16:14:15;10.20;99.90
44579;DHT22;37422;51.402;0.016;2022-11-20T16:17:02;10.10;99.90
44579;DHT22;37422;51.402;0.016;2022-11-20T16:19:32;10.00;99.90
44579;DHT22;37422;51.402;0.016;2022-11-20T16:22:00;10.00;99.90
44579;DHT22;37422;51.402;0.016;2022-11-20T16:24:29;9.90;99.90
44579;DHT22;37422;51.402;0.016;2022-11-20T16:26:57;9.90;99.90
44579;DHT22;37422;51.402;0.016;2022-11-20T16:29:25;9.90;99.90
44579;DHT22;37422;51.402;0.016;2022-11-20T16:31:53;9.90;99.90
44579;DHT22;37422;51.402;0.016;2022-11-20T16:34:20;9.90;99.90
44579;DHT22;37422;51.402;0.016;2022-11-20T16:36:48;9.80;99.90
44579;DHT22;37422;51.402;0.016;2022-11-20T16:39:16;9.80;99.90
44579;DHT22;37422;51.402;0.016;2022-11-20T16:41:50;9.80;99.90
44579;DHT22;37422;51.402;0.016;2022-11-20T16:44:17;9.80;99.90
44579;DHT22;37422;51.402;0.016;2022-11-20T16:46:45;9.90;99.90
44579;DHT22;37422;51.402;0.016;2022-11-20T16:49:14;9.90;99.90
44579;DHT22;37422;51.402;0.016;2022-11-20T16:51:42;9.90;99.90
44579;DHT22;37422;51.402;0.016;2022-11-20T16:54:10;9.90;99.90
44579;DHT22;37422;51.402;0.016;2022-11-20T16:56:44;9.90;99.90
44579;DHT22;37422;51.402;0.016;2022-11-20T16:59:14;9.90;99.90
44579;DHT22;37422;51.402;0.016;2022-11-20T17:01:42;9.80;99.90
44579;DHT22;37422;51.402;0.016;2022-11-20T17:04:10;9.80;99.90
44579;DHT22;37422;51.402;0.016;2022-11-20T17:06:41;9.70;99.90
44579;DHT22;37422;51.402;0.016;2022-11-20T17:09:11;9.70;99.90
44579;DHT22;37422;51.402;0.016;2022-11-20T17:11:39;9.60;99.90
44579;DHT22;37422;51.402;0.016;2022-11-20T17:14:07;9.50;99.90
44579;DHT22;37422;51.402;0.016;2022-11-20T17:16:37;9.60;99.90
44579;DHT22;37422;51.402;0.016;2022-11-20T17:19:04;9.60;99.90
44579;DHT22;37422;51.402;0.016;2022-11-20T17:21:34;9.50;99.90
44579;DHT22;37422;51.402;0.016;2022-11-20T17:24:08;9.60;99.90
44579;DHT22;37422;51.402;0.016;2022-11-20T17:26:38;9.60;99.90
44579;DHT22;37422;51.402;0.016;2022-11-20T17:29:10;9.70;99.90
44579;DHT22;37422;51.402;0.016;2022-11-20T17:31:44;9.60;99.90
44579;DHT22;37422;51.402;0.016;2022-11-20T17:34:14;9.70;99.90
44579;DHT22;37422;51.402;0.016;2022-11-20T17:36:43;9.70;99.90
44579;DHT22;37422;51.402;0.016;2022-11-20T17:39:13;9.70;99.90
44579;DHT22;37422;51.402;0.016;2022-11-20T17:41:42;9.60;99.90
44579;DHT22;37422;51.402;0.016;2022-11-20T17:44:11;9.70;99.90
44579;DHT22;37422;51.402;0.016;2022-11-20T17:46:39;9.70;99.90
44579;DHT22;37422;51.402;0.016;2022-11-20T17:49:11;9.70;99.90